sensor_id;sensor_type;location;lat;lon;timestamp;P1;durP1;ratioP1;P2;durP2;ratioP2
45548;SDS011;31270;48.328;10.096;2022-07-25T00:00:00;16.67;;;14.30;;
45548;SDS011;31270;48.328;10.096;2022-07-25T00:02:26;16.65;;;12.63;;
45548;SDS011;31270;48.328;10.096;2022-07-25T00:04:51;15.90;;;13.98;;
45548;SDS011;31270;48.328;10.096;2022-07-25T00:07:17;17.88;;;14.07;;
45548;SDS011;31270;48.328;10.096;2022-07-25T00:09:43;18.80;;;14.10;;
45548;SDS011;31270;48.328;10.096;2022-07-25T00:12:08;18.17;;;14.73;;
45548;SDS011;31270;48.328;10.096;2022-07-25T00:14:34;16.98;;;14.77;;
45548;SDS011;31270;48.328;10.096;2022-07-25T00:17:00;15.98;;;14.27;;
45548;SDS011;31270;48.328;10.096;2022-07-25T00:19:26;18.63;;;14.05;;
45548;SDS011;31270;48.328;10.096;2022-07-25T00:21:51;16.65;;;14.18;;
45548;SDS011;31270;48.328;10.096;2022-07-25T00:24:17;15.73;;;13.65;;
45548;SDS011;31270;48.328;10.096;2022-07-25T00:26:43;16.70;;;14.32;;
45548;SDS011;31270;48.328;10.096;2022-07-25T00:29:08;17.48;;;14.25;;
45548;SDS011;31270;48.328;10.096;2022-07-25T00:31:34;16.55;;;14.65;;
45548;SDS011;31270;48.328;10.096;2022-07-25T00:34:00;16.55;;;13.63;;
45548;SDS011;31270;48.328;10.096;2022-07-25T00:36:26;18.10;;;15.05;;
45548;SDS011;31270;48.328;10.096;2022-07-25T00:38:52;20.27;;;13.90;;
45548;SDS011;31270;48.328;10.096;2022-07-25T00:41:17;18.77;;;14.30;;
45548;SDS011;31270;48.328;10.096;2022-07-25T00:43:44;16.77;;;14.80;;
45548;SDS011;31270;48.328;10.096;2022-07-25T00:46:11;16.77;;;15.00;;
45548;SDS011;31270;48.328;10.096;2022-07-25T00:48:37;17.63;;;15.02;;
45548;SDS011;31270;48.328;10.096;2022-07-25T00:51:04;18.73;;;13.77;;
45548;SDS011;31270;48.328;10.096;2022-07-25T00:53:30;20.90;;;15.02;;
45548;SDS011;31270;48.328;10.096;2022-07-25T00:55:55;16.55;;;14.75;;
45548;SDS011;31270;48.328;10.096;2022-07-25T00:58:21;20.20;;;15.63;;
45548;SDS011;31270;48.328;10.096;2022-07-25T01:00:47;17.67;;;14.77;;
45548;SDS011;31270;48.328;10.096;2022-07-25T01:03:13;19.58;;;15.73;;
45548;SDS011;31270;48.328;10.096;2022-07-25T01:05:39;17.80;;;15.00;;
45548;SDS011;31270;48.328;10.096;2022-07-25T01:08:04;18.45;;;15.00;;
45548;SDS011;31270;48.328;10.096;2022-07-25T01:10:31;17.40;;;15.50;;
45548;SDS011;31270;48.328;10.096;2022-07-25T01:12:57;16.17;;;14.50;;
45548;SDS011;31270;48.328;10.096;2022-07-25T01:15:23;17.75;;;15.18;;
45548;SDS011;31270;48.328;10.096;2022-07-25T01:17:49;18.90;;;15.15;;
45548;SDS011;31270;48.328;10.096;2022-07-25T01:22:42;18.23;;;15.60;;
45548;SDS011;31270;48.328;10.096;2022-07-25T01:25:08;20.38;;;16.60;;
45548;SDS011;31270;48.328;10.096;2022-07-25T01:27:35;22.55;;;16.02;;
45548;SDS011;31270;48.328;10.096;2022-07-25T01:30:00;21.25;;;16.63;;
45548;SDS011;31270;48.328;10.096;2022-07-25T01:32:26;21.52;;;16.52;;
45548;SDS011;31270;48.328;10.096;2022-07-25T01:34:52;23.27;;;17.52;;
45548;SDS011;31270;48.328;10.096;2022-07-25T01:37:17;21.67;;;15.68;;
45548;SDS011;31270;48.328;10.096;2022-07-25T01:39:43;21.67;;;17.13;;
45548;SDS011;31270;48.328;10.096;2022-07-25T01:42:08;19.83;;;15.80;;
45548;SDS011;31270;48.328;10.096;2022-07-25T01:44:34;18.70;;;15.32;;
45548;SDS011;31270;48.328;10.096;2022-07-25T01:46:59;17.63;;;15.57;;
45548;SDS011;31270;48.328;10.096;2022-07-25T01:49:25;20.55;;;16.40;;
45548;SDS011;31270;48.328;10.096;2022-07-25T01:51:51;21.40;;;16.95;;
45548;SDS011;31270;48.328;10.096;2022-07-25T01:54:16;21.75;;;16.42;;
45548;SDS011;31270;48.328;10.096;2022-07-25T01:56:43;20.58;;;16.83;;
45548;SDS011;31270;48.328;10.096;2022-07-25T01:59:09;20.42;;;17.63;;
45548;SDS011;31270;48.328;10.096;2022-07-25T02:01:35;24.67;;;18.30;;
45548;SDS011;31270;48.328;10.096;2022-07-25T02:04:01;24.73;;;17.65;;
45548;SDS011;31270;48.328;10.096;2022-07-25T02:06:27;18.73;;;15.75;;
45548;SDS011;31270;48.328;10.096;2022-07-25T02:08:52;21.02;;;17.05;;
45548;SDS011;31270;48.328;10.096;2022-07-25T02:11:18;20.05;;;15.82;;
45548;SDS011;31270;48.328;10.096;2022-07-25T02:13:43;22.38;;;17.52;;
45548;SDS011;31270;48.328;10.096;2022-07-25T02:16:09;23.33;;;16.85;;
45548;SDS011;31270;48.328;10.096;2022-07-25T02:18:35;24.00;;;17.38;;
45548;SDS011;31270;48.328;10.096;2022-07-25T02:21:01;19.40;;;16.80;;
45548;SDS011;31270;48.328;10.096;2022-07-25T02:23:26;23.52;;;17.23;;
45548;SDS011;31270;48.328;10.096;2022-07-25T02:25:52;22.08;;;17.33;;
45548;SDS011;31270;48.328;10.096;2022-07-25T02:28:18;22.15;;;18.20;;
45548;SDS011;31270;48.328;10.096;2022-07-25T02:30:43;22.00;;;17.90;;
45548;SDS011;31270;48.328;10.096;2022-07-25T02:33:09;21.92;;;18.23;;
45548;SDS011;31270;48.328;10.096;2022-07-25T02:35:34;23.33;;;17.70;;
45548;SDS011;31270;48.328;10.096;2022-07-25T02:38:00;22.48;;;18.17;;
45548;SDS011;31270;48.328;10.096;2022-07-25T02:40:26;24.70;;;18.58;;
45548;SDS011;31270;48.328;10.096;2022-07-25T02:42:51;22.88;;;18.67;;
45548;SDS011;31270;48.328;10.096;2022-07-25T02:45:17;23.55;;;17.60;;
45548;SDS011;31270;48.328;10.096;2022-07-25T02:47:43;22.17;;;18.65;;
45548;SDS011;31270;48.328;10.096;2022-07-25T02:50:08;21.52;;;18.85;;
45548;SDS011;31270;48.328;10.096;2022-07-25T02:52:34;22.23;;;16.83;;
45548;SDS011;31270;48.328;10.096;2022-07-25T02:55:00;20.70;;;17.00;;
45548;SDS011;31270;48.328;10.096;2022-07-25T02:57:25;22.30;;;18.23;;
45548;SDS011;31270;48.328;10.096;2022-07-25T02:59:51;25.25;;;18.65;;
45548;SDS011;31270;48.328;10.096;2022-07-25T03:02:16;24.70;;;18.80;;
45548;SDS011;31270;48.328;10.096;2022-07-25T03:04:42;27.17;;;18.75;;
45548;SDS011;31270;48.328;10.096;2022-07-25T03:07:08;22.63;;;18.90;;
45548;SDS011;31270;48.328;10.096;2022-07-25T03:09:33;22.25;;;18.23;;
45548;SDS011;31270;48.328;10.096;2022-07-25T03:11:59;23.35;;;17.98;;
45548;SDS011;31270;48.328;10.096;2022-07-25T03:14:24;24.30;;;19.13;;
45548;SDS011;31270;48.328;10.096;2022-07-25T03:16:50;21.20;;;18.10;;
45548;SDS011;31270;48.328;10.096;2022-07-25T03:19:15;22.48;;;17.73;;
45548;SDS011;31270;48.328;10.096;2022-07-25T03:21:41;21.98;;;18.80;;
45548;SDS011;31270;48.328;10.096;2022-07-25T03:24:07;24.30;;;18.95;;
45548;SDS011;31270;48.328;10.096;2022-07-25T03:26:32;22.13;;;18.08;;
45548;SDS011;31270;48.328;10.096;2022-07-25T03:28:58;24.02;;;19.67;;
45548;SDS011;31270;48.328;10.096;2022-07-25T03:31:23;23.30;;;18.15;;
45548;SDS011;31270;48.328;10.096;2022-07-25T03:33:49;26.27;;;19.13;;
45548;SDS011;31270;48.328;10.096;2022-07-25T03:36:15;25.17;;;18.45;;
45548;SDS011;31270;48.328;10.096;2022-07-25T03:38:40;25.00;;;18.58;;
45548;SDS011;31270;48.328;10.096;2022-07-25T03:41:06;26.02;;;20.17;;
45548;SDS011;31270;48.328;10.096;2022-07-25T03:43:32;24.98;;;20.02;;
45548;SDS011;31270;48.328;10.096;2022-07-25T03:45:57;23.65;;;18.92;;
45548;SDS011;31270;48.328;10.096;2022-07-25T03:48:23;23.10;;;19.23;;
45548;SDS011;31270;48.328;10.096;2022-07-25T03:50:48;24.60;;;20.27;;
45548;SDS011;31270;48.328;10.096;2022-07-25T03:53:14;23.95;;;19.95;;
45548;SDS011;31270;48.328;10.096;2022-07-25T03:55:39;25.00;;;20.52;;
45548;SDS011;31270;48.328;10.096;2022-07-25T03:58:05;25.38;;;20.35;;
45548;SDS011;31270;48.328;10.096;2022-07-25T04:00:31;25.80;;;19.92;;
45548;SDS011;31270;48.328;10.096;2022-07-25T04:02:56;24.50;;;20.42;;
45548;SDS011;31270;48.328;10.096;2022-07-25T04:05:22;25.50;;;20.13;;
45548;SDS011;31270;48.328;10.096;2022-07-25T04:07:47;24.88;;;21.02;;
45548;SDS011;31270;48.328;10.096;2022-07-25T04:10:13;27.83;;;20.30;;
45548;SDS011;31270;48.328;10.096;2022-07-25T04:12:39;22.92;;;19.13;;
45548;SDS011;31270;48.328;10.096;2022-07-25T04:15:05;23.92;;;20.15;;
45548;SDS011;31270;48.328;10.096;2022-07-25T04:17:31;27.70;;;20.20;;
45548;SDS011;31270;48.328;10.096;2022-07-25T04:19:57;25.63;;;20.25;;
45548;SDS011;31270;48.328;10.096;2022-07-25T04:22:22;24.08;;;19.95;;
45548;SDS011;31270;48.328;10.096;2022-07-25T04:24:48;24.15;;;20.30;;
45548;SDS011;31270;48.328;10.096;2022-07-25T04:27:14;23.33;;;19.95;;
45548;SDS011;31270;48.328;10.096;2022-07-25T04:29:40;22.40;;;18.92;;
45548;SDS011;31270;48.328;10.096;2022-07-25T04:32:05;27.35;;;20.40;;
45548;SDS011;31270;48.328;10.096;2022-07-25T04:34:31;23.55;;;19.83;;
45548;SDS011;31270;48.328;10.096;2022-07-25T04:36:57;25.23;;;19.60;;
45548;SDS011;31270;48.328;10.096;2022-07-25T04:39:22;23.98;;;20.70;;
45548;SDS011;31270;48.328;10.096;2022-07-25T04:41:48;24.55;;;20.42;;
45548;SDS011;31270;48.328;10.096;2022-07-25T04:44:13;26.13;;;19.88;;
45548;SDS011;31270;48.328;10.096;2022-07-25T04:46:39;22.50;;;19.15;;
45548;SDS011;31270;48.328;10.096;2022-07-25T04:49:05;23.13;;;19.52;;
45548;SDS011;31270;48.328;10.096;2022-07-25T04:51:30;23.38;;;19.42;;
45548;SDS011;31270;48.328;10.096;2022-07-25T04:53:56;22.95;;;20.02;;
45548;SDS011;31270;48.328;10.096;2022-07-25T04:56:22;24.45;;;18.95;;
45548;SDS011;31270;48.328;10.096;2022-07-25T04:58:47;23.30;;;19.77;;
45548;SDS011;31270;48.328;10.096;2022-07-25T05:01:13;23.52;;;19.08;;
45548;SDS011;31270;48.328;10.096;2022-07-25T05:03:39;21.65;;;18.10;;
45548;SDS011;31270;48.328;10.096;2022-07-25T05:06:05;25.25;;;18.63;;
45548;SDS011;31270;48.328;10.096;2022-07-25T05:08:31;22.73;;;18.92;;
45548;SDS011;31270;48.328;10.096;2022-07-25T05:10:56;23.90;;;18.92;;
45548;SDS011;31270;48.328;10.096;2022-07-25T05:13:22;21.70;;;19.08;;
45548;SDS011;31270;48.328;10.096;2022-07-25T05:15:48;23.92;;;17.77;;
45548;SDS011;31270;48.328;10.096;2022-07-25T05:18:13;21.10;;;18.27;;
45548;SDS011;31270;48.328;10.096;2022-07-25T05:20:39;22.70;;;18.33;;
45548;SDS011;31270;48.328;10.096;2022-07-25T05:23:05;23.65;;;18.80;;
45548;SDS011;31270;48.328;10.096;2022-07-25T05:25:30;23.05;;;19.33;;
45548;SDS011;31270;48.328;10.096;2022-07-25T05:27:57;26.00;;;19.08;;
45548;SDS011;31270;48.328;10.096;2022-07-25T05:30:22;21.95;;;19.00;;
45548;SDS011;31270;48.328;10.096;2022-07-25T05:32:48;22.73;;;17.13;;
45548;SDS011;31270;48.328;10.096;2022-07-25T05:35:14;21.25;;;18.05;;
45548;SDS011;31270;48.328;10.096;2022-07-25T05:37:40;19.88;;;17.63;;
45548;SDS011;31270;48.328;10.096;2022-07-25T05:40:06;21.10;;;18.15;;
45548;SDS011;31270;48.328;10.096;2022-07-25T05:42:32;20.20;;;18.05;;
45548;SDS011;31270;48.328;10.096;2022-07-25T05:44:58;24.95;;;19.25;;
45548;SDS011;31270;48.328;10.096;2022-07-25T05:47:24;22.25;;;18.75;;
45548;SDS011;31270;48.328;10.096;2022-07-25T05:49:49;21.30;;;18.30;;
45548;SDS011;31270;48.328;10.096;2022-07-25T05:52:15;19.52;;;17.38;;
45548;SDS011;31270;48.328;10.096;2022-07-25T05:54:41;19.70;;;17.67;;
45548;SDS011;31270;48.328;10.096;2022-07-25T05:57:06;19.65;;;17.05;;
45548;SDS011;31270;48.328;10.096;2022-07-25T05:59:32;18.98;;;16.75;;
45548;SDS011;31270;48.328;10.096;2022-07-25T06:01:59;21.35;;;17.38;;
45548;SDS011;31270;48.328;10.096;2022-07-25T06:04:25;22.38;;;17.83;;
45548;SDS011;31270;48.328;10.096;2022-07-25T06:06:50;20.25;;;17.70;;
45548;SDS011;31270;48.328;10.096;2022-07-25T06:09:20;19.05;;;16.38;;
45548;SDS011;31270;48.328;10.096;2022-07-25T06:11:46;21.92;;;17.08;;
45548;SDS011;31270;48.328;10.096;2022-07-25T06:14:13;18.35;;;16.45;;
45548;SDS011;31270;48.328;10.096;2022-07-25T06:16:38;22.33;;;16.73;;
45548;SDS011;31270;48.328;10.096;2022-07-25T06:19:04;18.13;;;16.20;;
45548;SDS011;31270;48.328;10.096;2022-07-25T06:21:30;19.60;;;16.92;;
45548;SDS011;31270;48.328;10.096;2022-07-25T06:23:56;19.70;;;17.55;;
45548;SDS011;31270;48.328;10.096;2022-07-25T06:26:21;19.42;;;17.23;;
45548;SDS011;31270;48.328;10.096;2022-07-25T06:28:48;19.65;;;17.55;;
45548;SDS011;31270;48.328;10.096;2022-07-25T06:31:14;18.83;;;16.40;;
45548;SDS011;31270;48.328;10.096;2022-07-25T06:33:40;18.48;;;16.48;;
45548;SDS011;31270;48.328;10.096;2022-07-25T06:36:06;19.77;;;16.52;;
45548;SDS011;31270;48.328;10.096;2022-07-25T06:38:32;20.52;;;16.30;;
45548;SDS011;31270;48.328;10.096;2022-07-25T06:40:57;20.70;;;16.33;;
45548;SDS011;31270;48.328;10.096;2022-07-25T06:43:23;22.17;;;15.77;;
45548;SDS011;31270;48.328;10.096;2022-07-25T06:45:49;18.35;;;15.82;;
45548;SDS011;31270;48.328;10.096;2022-07-25T06:48:15;19.63;;;15.80;;
45548;SDS011;31270;48.328;10.096;2022-07-25T06:50:41;19.77;;;15.48;;
45548;SDS011;31270;48.328;10.096;2022-07-25T06:53:09;26.10;;;15.82;;
45548;SDS011;31270;48.328;10.096;2022-07-25T06:55:34;19.98;;;15.27;;
45548;SDS011;31270;48.328;10.096;2022-07-25T06:58:00;16.48;;;14.77;;
45548;SDS011;31270;48.328;10.096;2022-07-25T07:00:26;16.52;;;14.60;;
45548;SDS011;31270;48.328;10.096;2022-07-25T07:02:55;19.60;;;15.65;;
45548;SDS011;31270;48.328;10.096;2022-07-25T07:05:23;17.35;;;15.40;;
45548;SDS011;31270;48.328;10.096;2022-07-25T07:07:50;16.55;;;14.90;;
45548;SDS011;31270;48.328;10.096;2022-07-25T07:10:16;16.75;;;14.98;;
45548;SDS011;31270;48.328;10.096;2022-07-25T07:12:43;16.25;;;14.48;;
45548;SDS011;31270;48.328;10.096;2022-07-25T07:15:09;16.70;;;15.00;;
45548;SDS011;31270;48.328;10.096;2022-07-25T07:17:35;16.83;;;14.15;;
45548;SDS011;31270;48.328;10.096;2022-07-25T07:20:01;18.23;;;14.27;;
45548;SDS011;31270;48.328;10.096;2022-07-25T07:22:28;17.98;;;13.73;;
45548;SDS011;31270;48.328;10.096;2022-07-25T07:24:53;17.65;;;14.05;;
45548;SDS011;31270;48.328;10.096;2022-07-25T07:27:19;15.88;;;14.18;;
45548;SDS011;31270;48.328;10.096;2022-07-25T07:29:47;15.23;;;13.70;;
45548;SDS011;31270;48.328;10.096;2022-07-25T07:32:13;15.15;;;13.65;;
45548;SDS011;31270;48.328;10.096;2022-07-25T07:34:39;16.45;;;13.43;;
45548;SDS011;31270;48.328;10.096;2022-07-25T07:37:05;15.23;;;13.75;;
45548;SDS011;31270;48.328;10.096;2022-07-25T07:39:30;15.13;;;13.57;;
45548;SDS011;31270;48.328;10.096;2022-07-25T07:41:56;13.88;;;12.60;;
45548;SDS011;31270;48.328;10.096;2022-07-25T07:44:21;14.65;;;13.25;;
45548;SDS011;31270;48.328;10.096;2022-07-25T07:46:47;14.73;;;12.63;;
45548;SDS011;31270;48.328;10.096;2022-07-25T07:49:13;14.65;;;13.00;;
45548;SDS011;31270;48.328;10.096;2022-07-25T07:51:38;15.20;;;13.63;;
45548;SDS011;31270;48.328;10.096;2022-07-25T07:54:04;14.63;;;13.23;;
45548;SDS011;31270;48.328;10.096;2022-07-25T07:56:48;14.18;;;12.85;;
45548;SDS011;31270;48.328;10.096;2022-07-25T07:59:14;13.52;;;12.05;;
45548;SDS011;31270;48.328;10.096;2022-07-25T08:01:39;15.57;;;12.23;;
45548;SDS011;31270;48.328;10.096;2022-07-25T08:04:05;14.07;;;12.48;;
45548;SDS011;31270;48.328;10.096;2022-07-25T08:06:31;13.32;;;11.95;;
45548;SDS011;31270;48.328;10.096;2022-07-25T08:08:57;13.43;;;11.80;;
45548;SDS011;31270;48.328;10.096;2022-07-25T08:11:23;13.32;;;12.02;;
45548;SDS011;31270;48.328;10.096;2022-07-25T08:13:50;12.38;;;11.18;;
45548;SDS011;31270;48.328;10.096;2022-07-25T08:16:16;14.32;;;11.50;;
45548;SDS011;31270;48.328;10.096;2022-07-25T08:18:42;12.15;;;10.85;;
45548;SDS011;31270;48.328;10.096;2022-07-25T08:21:08;11.70;;;10.35;;
45548;SDS011;31270;48.328;10.096;2022-07-25T08:23:34;12.80;;;11.50;;
45548;SDS011;31270;48.328;10.096;2022-07-25T08:26:02;12.32;;;11.20;;
45548;SDS011;31270;48.328;10.096;2022-07-25T08:28:29;11.98;;;10.77;;
45548;SDS011;31270;48.328;10.096;2022-07-25T08:30:55;12.52;;;11.15;;
45548;SDS011;31270;48.328;10.096;2022-07-25T08:33:22;12.93;;;11.40;;
45548;SDS011;31270;48.328;10.096;2022-07-25T08:35:49;12.10;;;10.90;;
45548;SDS011;31270;48.328;10.096;2022-07-25T08:38:17;12.27;;;11.07;;
45548;SDS011;31270;48.328;10.096;2022-07-25T08:40:44;12.63;;;11.38;;
45548;SDS011;31270;48.328;10.096;2022-07-25T08:43:11;12.52;;;11.32;;
45548;SDS011;31270;48.328;10.096;2022-07-25T08:45:39;12.85;;;11.60;;
45548;SDS011;31270;48.328;10.096;2022-07-25T08:48:15;12.23;;;10.95;;
45548;SDS011;31270;48.328;10.096;2022-07-25T08:50:41;12.25;;;11.02;;
45548;SDS011;31270;48.328;10.096;2022-07-25T08:53:08;12.25;;;11.15;;
45548;SDS011;31270;48.328;10.096;2022-07-25T08:55:34;12.40;;;11.30;;
45548;SDS011;31270;48.328;10.096;2022-07-25T08:57:59;13.05;;;11.35;;
45548;SDS011;31270;48.328;10.096;2022-07-25T09:00:26;11.35;;;10.32;;
45548;SDS011;31270;48.328;10.096;2022-07-25T09:02:59;12.18;;;10.93;;
45548;SDS011;31270;48.328;10.096;2022-07-25T09:05:27;14.45;;;10.85;;
45548;SDS011;31270;48.328;10.096;2022-07-25T09:07:54;11.88;;;10.60;;
45548;SDS011;31270;48.328;10.096;2022-07-25T09:10:23;16.20;;;10.95;;
45548;SDS011;31270;48.328;10.096;2022-07-25T09:12:57;15.88;;;11.10;;
45548;SDS011;31270;48.328;10.096;2022-07-25T09:15:35;11.73;;;10.52;;
45548;SDS011;31270;48.328;10.096;2022-07-25T09:18:03;13.25;;;10.45;;
45548;SDS011;31270;48.328;10.096;2022-07-25T09:20:37;10.95;;;9.93;;
45548;SDS011;31270;48.328;10.096;2022-07-25T09:23:07;10.93;;;9.93;;
45548;SDS011;31270;48.328;10.096;2022-07-25T09:26:00;11.43;;;10.25;;
45548;SDS011;31270;48.328;10.096;2022-07-25T09:28:40;11.52;;;10.52;;
45548;SDS011;31270;48.328;10.096;2022-07-25T09:31:09;11.98;;;10.10;;
45548;SDS011;31270;48.328;10.096;2022-07-25T09:36:12;10.20;;;9.20;;
45548;SDS011;31270;48.328;10.096;2022-07-25T09:38:37;10.85;;;9.85;;
45548;SDS011;31270;48.328;10.096;2022-07-25T09:41:03;10.60;;;9.45;;
45548;SDS011;31270;48.328;10.096;2022-07-25T09:43:35;10.55;;;9.45;;
45548;SDS011;31270;48.328;10.096;2022-07-25T09:46:01;10.05;;;9.18;;
45548;SDS011;31270;48.328;10.096;2022-07-25T09:48:27;9.85;;;8.80;;
45548;SDS011;31270;48.328;10.096;2022-07-25T09:50:52;9.88;;;8.98;;
45548;SDS011;31270;48.328;10.096;2022-07-25T09:53:19;9.55;;;8.57;;
45548;SDS011;31270;48.328;10.096;2022-07-25T09:55:45;9.73;;;8.82;;
45548;SDS011;31270;48.328;10.096;2022-07-25T09:58:11;8.75;;;8.02;;
45548;SDS011;31270;48.328;10.096;2022-07-25T10:00:38;10.20;;;9.20;;
45548;SDS011;31270;48.328;10.096;2022-07-25T10:03:13;9.50;;;8.27;;
45548;SDS011;31270;48.328;10.096;2022-07-25T10:06:01;9.10;;;8.38;;
45548;SDS011;31270;48.328;10.096;2022-07-25T10:08:34;9.18;;;8.27;;
45548;SDS011;31270;48.328;10.096;2022-07-25T10:11:01;8.82;;;8.07;;
45548;SDS011;31270;48.328;10.096;2022-07-25T10:13:29;9.18;;;8.38;;
45548;SDS011;31270;48.328;10.096;2022-07-25T10:15:56;11.82;;;8.32;;
45548;SDS011;31270;48.328;10.096;2022-07-25T10:18:23;8.50;;;7.80;;
45548;SDS011;31270;48.328;10.096;2022-07-25T10:20:52;14.23;;;7.05;;
45548;SDS011;31270;48.328;10.096;2022-07-25T10:23:34;7.47;;;6.30;;
45548;SDS011;31270;48.328;10.096;2022-07-25T10:26:07;7.43;;;6.72;;
45548;SDS011;31270;48.328;10.096;2022-07-25T10:28:48;7.28;;;6.57;;
45548;SDS011;31270;48.328;10.096;2022-07-25T10:31:22;7.00;;;6.30;;
45548;SDS011;31270;48.328;10.096;2022-07-25T10:34:07;7.22;;;6.53;;
45548;SDS011;31270;48.328;10.096;2022-07-25T10:36:41;8.80;;;6.22;;
45548;SDS011;31270;48.328;10.096;2022-07-25T10:39:20;7.50;;;6.80;;
45548;SDS011;31270;48.328;10.096;2022-07-25T10:41:53;7.15;;;6.45;;
45548;SDS011;31270;48.328;10.096;2022-07-25T10:44:26;9.32;;;6.53;;
45548;SDS011;31270;48.328;10.096;2022-07-25T10:47:05;7.65;;;6.95;;
45548;SDS011;31270;48.328;10.096;2022-07-25T10:49:36;6.75;;;6.18;;
45548;SDS011;31270;48.328;10.096;2022-07-25T10:52:13;7.78;;;6.80;;
45548;SDS011;31270;48.328;10.096;2022-07-25T10:54:41;8.13;;;6.78;;
45548;SDS011;31270;48.328;10.096;2022-07-25T10:57:20;7.20;;;6.60;;
45548;SDS011;31270;48.328;10.096;2022-07-25T10:59:46;8.07;;;7.28;;
45548;SDS011;31270;48.328;10.096;2022-07-25T11:02:12;8.32;;;7.53;;
45548;SDS011;31270;48.328;10.096;2022-07-25T11:04:44;7.95;;;7.25;;
45548;SDS011;31270;48.328;10.096;2022-07-25T11:07:22;8.68;;;7.00;;
45548;SDS011;31270;48.328;10.096;2022-07-25T11:09:55;6.90;;;6.22;;
45548;SDS011;31270;48.328;10.096;2022-07-25T11:12:25;6.25;;;5.75;;
45548;SDS011;31270;48.328;10.096;2022-07-25T11:14:55;7.40;;;6.70;;
45548;SDS011;31270;48.328;10.096;2022-07-25T11:17:24;6.53;;;5.95;;
45548;SDS011;31270;48.328;10.096;2022-07-25T11:19:58;6.43;;;5.93;;
45548;SDS011;31270;48.328;10.096;2022-07-25T11:22:28;6.18;;;5.68;;
45548;SDS011;31270;48.328;10.096;2022-07-25T11:24:55;7.93;;;7.13;;
45548;SDS011;31270;48.328;10.096;2022-07-25T11:27:25;8.73;;;7.93;;
45548;SDS011;31270;48.328;10.096;2022-07-25T11:29:53;7.22;;;6.63;;
45548;SDS011;31270;48.328;10.096;2022-07-25T11:32:41;7.85;;;6.88;;
45548;SDS011;31270;48.328;10.096;2022-07-25T11:35:10;7.25;;;6.65;;
45548;SDS011;31270;48.328;10.096;2022-07-25T11:37:38;9.02;;;6.38;;
45548;SDS011;31270;48.328;10.096;2022-07-25T11:40:06;6.70;;;6.10;;
45548;SDS011;31270;48.328;10.096;2022-07-25T11:42:38;6.68;;;6.00;;
45548;SDS011;31270;48.328;10.096;2022-07-25T11:45:18;7.97;;;7.38;;
45548;SDS011;31270;48.328;10.096;2022-07-25T11:47:46;7.28;;;6.68;;
45548;SDS011;31270;48.328;10.096;2022-07-25T11:50:14;8.25;;;7.07;;
45548;SDS011;31270;48.328;10.096;2022-07-25T11:52:40;7.50;;;6.80;;
45548;SDS011;31270;48.328;10.096;2022-07-25T11:55:08;7.82;;;7.05;;
45548;SDS011;31270;48.328;10.096;2022-07-25T11:57:42;7.43;;;6.75;;
45548;SDS011;31270;48.328;10.096;2022-07-25T12:00:14;8.25;;;6.40;;
45548;SDS011;31270;48.328;10.096;2022-07-25T12:02:42;7.20;;;6.50;;
45548;SDS011;31270;48.328;10.096;2022-07-25T12:05:09;7.03;;;6.40;;
45548;SDS011;31270;48.328;10.096;2022-07-25T12:10:33;7.75;;;7.05;;
45548;SDS011;31270;48.328;10.096;2022-07-25T12:13:00;7.38;;;6.53;;
45548;SDS011;31270;48.328;10.096;2022-07-25T12:15:29;7.22;;;6.55;;
45548;SDS011;31270;48.328;10.096;2022-07-25T12:17:56;7.93;;;7.22;;
45548;SDS011;31270;48.328;10.096;2022-07-25T12:20:23;8.00;;;7.40;;
45548;SDS011;31270;48.328;10.096;2022-07-25T12:22:55;7.90;;;7.20;;
45548;SDS011;31270;48.328;10.096;2022-07-25T12:25:22;8.05;;;7.35;;
45548;SDS011;31270;48.328;10.096;2022-07-25T12:27:48;8.32;;;7.35;;
45548;SDS011;31270;48.328;10.096;2022-07-25T12:30:15;10.45;;;7.68;;
45548;SDS011;31270;48.328;10.096;2022-07-25T12:32:41;7.20;;;6.60;;
45548;SDS011;31270;48.328;10.096;2022-07-25T12:35:08;7.20;;;6.50;;
45548;SDS011;31270;48.328;10.096;2022-07-25T12:37:35;7.60;;;7.00;;
45548;SDS011;31270;48.328;10.096;2022-07-25T12:40:01;8.25;;;7.05;;
45548;SDS011;31270;48.328;10.096;2022-07-25T12:42:27;7.90;;;7.28;;
45548;SDS011;31270;48.328;10.096;2022-07-25T12:44:53;9.57;;;7.80;;
45548;SDS011;31270;48.328;10.096;2022-07-25T12:47:20;7.90;;;7.10;;
45548;SDS011;31270;48.328;10.096;2022-07-25T12:49:46;8.30;;;7.50;;
45548;SDS011;31270;48.328;10.096;2022-07-25T12:52:12;8.38;;;7.53;;
45548;SDS011;31270;48.328;10.096;2022-07-25T12:54:37;11.70;;;7.95;;
45548;SDS011;31270;48.328;10.096;2022-07-25T12:57:03;8.80;;;7.15;;
45548;SDS011;31270;48.328;10.096;2022-07-25T12:59:29;8.55;;;7.63;;
45548;SDS011;31270;48.328;10.096;2022-07-25T13:01:54;8.00;;;7.30;;
45548;SDS011;31270;48.328;10.096;2022-07-25T13:04:20;8.35;;;7.10;;
45548;SDS011;31270;48.328;10.096;2022-07-25T13:06:46;8.95;;;7.22;;
45548;SDS011;31270;48.328;10.096;2022-07-25T13:09:11;9.30;;;7.80;;
45548;SDS011;31270;48.328;10.096;2022-07-25T13:11:37;8.45;;;7.75;;
45548;SDS011;31270;48.328;10.096;2022-07-25T13:14:02;8.68;;;7.97;;
45548;SDS011;31270;48.328;10.096;2022-07-25T13:16:28;8.23;;;7.57;;
45548;SDS011;31270;48.328;10.096;2022-07-25T13:18:54;8.82;;;8.00;;
45548;SDS011;31270;48.328;10.096;2022-07-25T13:21:19;8.73;;;7.93;;
45548;SDS011;31270;48.328;10.096;2022-07-25T13:23:45;8.45;;;7.65;;
45548;SDS011;31270;48.328;10.096;2022-07-25T13:26:11;9.55;;;7.90;;
45548;SDS011;31270;48.328;10.096;2022-07-25T13:28:37;8.52;;;7.72;;
45548;SDS011;31270;48.328;10.096;2022-07-25T13:31:02;7.90;;;7.20;;
45548;SDS011;31270;48.328;10.096;2022-07-25T13:33:31;8.10;;;7.40;;
45548;SDS011;31270;48.328;10.096;2022-07-25T13:35:57;8.90;;;8.00;;
45548;SDS011;31270;48.328;10.096;2022-07-25T13:38:23;8.70;;;7.90;;
45548;SDS011;31270;48.328;10.096;2022-07-25T13:40:48;11.70;;;8.18;;
45548;SDS011;31270;48.328;10.096;2022-07-25T13:43:14;9.25;;;8.05;;
45548;SDS011;31270;48.328;10.096;2022-07-25T13:45:40;8.80;;;8.00;;
45548;SDS011;31270;48.328;10.096;2022-07-25T13:48:07;8.65;;;7.90;;
45548;SDS011;31270;48.328;10.096;2022-07-25T13:50:32;14.80;;;7.88;;
45548;SDS011;31270;48.328;10.096;2022-07-25T13:52:58;8.88;;;8.18;;
45548;SDS011;31270;48.328;10.096;2022-07-25T13:55:29;8.52;;;7.72;;
45548;SDS011;31270;48.328;10.096;2022-07-25T13:57:55;8.85;;;8.02;;
45548;SDS011;31270;48.328;10.096;2022-07-25T14:00:21;8.43;;;7.72;;
45548;SDS011;31270;48.328;10.096;2022-07-25T14:02:47;8.52;;;7.78;;
45548;SDS011;31270;48.328;10.096;2022-07-25T14:05:12;8.27;;;7.47;;
45548;SDS011;31270;48.328;10.096;2022-07-25T14:07:38;8.45;;;7.60;;
45548;SDS011;31270;48.328;10.096;2022-07-25T14:10:04;8.57;;;7.68;;
45548;SDS011;31270;48.328;10.096;2022-07-25T14:12:32;8.70;;;7.90;;
45548;SDS011;31270;48.328;10.096;2022-07-25T14:14:59;9.95;;;7.40;;
45548;SDS011;31270;48.328;10.096;2022-07-25T14:17:25;7.28;;;6.57;;
45548;SDS011;31270;48.328;10.096;2022-07-25T14:19:51;8.13;;;7.32;;
45548;SDS011;31270;48.328;10.096;2022-07-25T14:22:17;8.52;;;7.63;;